ADDS METAR Data INFO
IDs: Format: Raw Decoded Include TAF

Data at: 2024 UTC 16 Dec 2017

KRCZ 162000Z AUTO 25003KT 10SM CLR 10/M05 A3022 RMK AO2 T00971052
KRCZ 161940Z AUTO 22007KT 10SM CLR 09/M05 A3022 RMK AO2 T00941052
KRCZ 161920Z AUTO 27007KT 10SM CLR 10/M05 A3023 RMK AO2 T00971049
KRCZ 161900Z AUTO 27005KT 10SM CLR 09/M05 A3023 RMK AO2 T00931053
KRCZ 161840Z AUTO 23005KT 10SM CLR 09/M05 A3024 RMK AO2 T00911050
KRCZ 161820Z AUTO 21004KT 10SM CLR 09/M05 A3024 RMK AO2 T00901050
KRCZ 161800Z AUTO 21004KT 10SM CLR 08/M05 A3025 RMK AO2 T00841055
KRCZ 161740Z AUTO 16003KT 10SM CLR 08/M06 A3026 RMK AO2 T00821057
KRCZ 161720Z AUTO 00000KT 10SM CLR 08/M06 A3027 RMK AO2 T00791056
KRCZ 161700Z AUTO 00000KT 10SM CLR 07/M05 A3028 RMK AO2 T00731055
KRCZ 161640Z AUTO 00000KT 10SM CLR 07/M05 A3029 RMK AO2 T00691053
KRCZ 161620Z AUTO 00000KT 10SM CLR 07/M05 A3029 RMK AO2 T00651049
KRCZ 161600Z AUTO 00000KT 10SM CLR 06/M05 A3030 RMK AO2 T00561050
KRCZ 161540Z AUTO 00000KT 10SM CLR 05/M04 A3031 RMK AO2 T00511039
KRCZ 161520Z AUTO 00000KT 10SM CLR 04/M04 A3031 RMK AO2 T00441037
KRCZ 161500Z AUTO 00000KT 10SM CLR 04/M04 A3031 RMK AO2 T00361039
KRCZ 161440Z AUTO 00000KT 10SM CLR 03/M04 A3030 RMK AO2 T00251037
KRCZ 161420Z AUTO 00000KT 10SM CLR 01/M04 A3030 RMK AO2 T00131036
KRCZ 161400Z AUTO 00000KT 10SM CLR 00/M03 A3029 RMK AO2 T00031029
KRCZ 161340Z AUTO 00000KT 10SM CLR M01/M03 A3029 RMK AO2 T10061026
KRCZ 161320Z AUTO 00000KT 7SM CLR M02/M02 A3028 RMK AO2 T10181025
KRCZ 161300Z AUTO 00000KT 7SM CLR M03/M04 A3028 RMK AO2 T10321037
KRCZ 161240Z AUTO 00000KT 5SM BR CLR M04/M04 A3028 RMK AO2 T10421044
KRCZ 161220Z AUTO 00000KT 7SM CLR M04/M04 A3027 RMK AO2 T10361040
KRCZ 161200Z AUTO 00000KT 7SM CLR M04/M04 A3025 RMK AO2 T10361040
KRCZ 161140Z AUTO 00000KT 7SM CLR M04/M04 A3024 RMK AO2 T10401044
KRCZ 161120Z AUTO 00000KT 7SM CLR M04/M04 A3023 RMK AO2 T10371042
KRCZ 161100Z AUTO 00000KT 10SM CLR M03/M04 A3023 RMK AO2 T10351039
KRCZ 161040Z AUTO 00000KT 10SM CLR M03/M04 A3022 RMK AO2 T10331038
KRCZ 161020Z AUTO 00000KT 10SM CLR M02/M03 A3021 RMK AO2 T10241032
KRCZ 161000Z AUTO 00000KT 10SM CLR M03/M03 A3020 RMK AO2 T10281033
KRCZ 160940Z AUTO 00000KT 10SM CLR M03/M04 A3020 RMK AO2 T10301038
KRCZ 160920Z AUTO 00000KT 10SM CLR M02/M03 A3020 RMK AO2 T10201032
KRCZ 160900Z AUTO 00000KT 10SM CLR M01/M03 A3020 RMK AO2 T10151035
KRCZ 160840Z AUTO 00000KT 10SM CLR M02/M04 A3020 RMK AO2 T10171038
KRCZ 160820Z AUTO 32003KT 10SM CLR M01/M03 A3020 RMK AO2 T10111031
KRCZ 160800Z AUTO 00000KT 10SM CLR M02/M04 A3019 RMK AO2 T10161037
KRCZ 160740Z AUTO 00000KT 10SM CLR M01/M03 A3018 RMK AO2 T10061035
KRCZ 160720Z AUTO 00000KT 10SM CLR 00/M03 A3018 RMK AO2 T10021035
KRCZ 160700Z AUTO 33003KT 10SM CLR 00/M03 A3017 RMK AO2 T00001033
KRCZ 160640Z AUTO 00000KT 10SM CLR 00/M03 A3016 RMK AO2 T00021031
KRCZ 160620Z AUTO 00000KT 10SM CLR 00/M03 A3016 RMK AO2 T00011028
KRCZ 160600Z AUTO 00000KT 10SM CLR 00/M03 A3015 RMK AO2 T00001027
KRCZ 160540Z AUTO 30003KT 10SM CLR 00/M03 A3015 RMK AO2 T00001027
KRCZ 160520Z AUTO 30003KT 10SM CLR 00/M02 A3014 RMK AO2 T10051025
KRCZ 160500Z AUTO 31003KT 10SM CLR 01/M02 A3014 RMK AO2 T00121025
KRCZ 160440Z AUTO 32003KT 10SM CLR 02/M03 A3014 RMK AO2 T00181028
KRCZ 160420Z AUTO 33003KT 10SM CLR 02/M03 A3013 RMK AO2 T00231030
KRCZ 160400Z AUTO 33004KT 10SM CLR 02/M03 A3012 RMK AO2 T00241028
KRCZ 160340Z AUTO 32003KT 10SM CLR 02/M02 A3012 RMK AO2 T00211023
KRCZ 160320Z AUTO 00000KT 10SM CLR 03/M01 A3011 RMK AO2 T00261015
KRCZ 160300Z AUTO 00000KT 10SM CLR 03/M01 A3009 RMK AO2 T00261010
KRCZ 160240Z AUTO 00000KT 10SM CLR 03/M01 A3008 RMK AO2 T00261009
KRCZ 160220Z AUTO 00000KT 10SM CLR 03/M01 A3007 RMK AO2 T00331011
KRCZ 160200Z AUTO 00000KT 10SM CLR 04/M01 A3007 RMK AO2 T00401011
KRCZ 160140Z AUTO 00000KT 10SM CLR 05/M01 A3006 RMK AO2 T00451010
KRCZ 160120Z AUTO 35004KT 10SM CLR 05/M01 A3006 RMK AO2 T00481007
KRCZ 160100Z AUTO 35003KT 10SM CLR 05/M01 A3006 RMK AO2 T00511006
KRCZ 160040Z AUTO 35005KT 10SM CLR 06/00 A3004 RMK AO2 T00571005
KRCZ 160020Z AUTO 36005KT 10SM CLR 06/00 A3003 RMK AO2 T00611002
KRCZ 160000Z AUTO 36004KT 10SM CLR 07/00 A3002 RMK AO2 T00650000
KRCZ 152340Z AUTO 35004KT 10SM CLR 07/00 A3001 RMK AO2 T00680000
KRCZ 152320Z AUTO 33004KT 10SM CLR 07/00 A3001 RMK AO2 T00710001
KRCZ 152300Z AUTO 33005KT 10SM CLR 07/00 A2999 RMK AO2 T00740001
KRCZ 152240Z AUTO 33004KT 10SM CLR 08/00 A2998 RMK AO2 T00750001
KRCZ 152220Z AUTO 33004KT 10SM CLR 08/00 A2997 RMK AO2 T00770002
KRCZ 152200Z AUTO 32007KT 10SM CLR 08/00 A2997 RMK AO2 T00800004
KRCZ 152140Z AUTO 33005KT 10SM CLR 08/01 A2996 RMK AO2 T00810007
KRCZ 152120Z AUTO 34005KT 10SM CLR 09/01 A2995 RMK AO2 T00850010
KRCZ 152100Z AUTO 33005KT 10SM CLR 09/01 A2994 RMK AO2 T00880007
KRCZ 152040Z AUTO 32005KT 10SM CLR 09/01 A2994 RMK AO2 T00920009
KRCZ 152020Z AUTO 31005KT 10SM CLR 10/01 A2994 RMK AO2 T00950011
KRCZ 152000Z AUTO 31005KT 10SM CLR 10/01 A2993 RMK AO2 T00990011
KRCZ 151940Z AUTO 30007KT 10SM CLR 10/01 A2993 RMK AO2 T01030006
KRCZ 151920Z AUTO 27006KT 10SM CLR 11/01 A2992 RMK AO2 T01050006
KRCZ 151900Z AUTO 24009KT 10SM CLR 11/00 A2992 RMK AO2 T01050004
KRCZ 151840Z AUTO 25009KT 10SM CLR 10/01 A2993 RMK AO2 T01030010
KRCZ 151820Z AUTO 27007KT 10SM CLR 10/01 A2994 RMK AO2 T00980009
KRCZ 151800Z AUTO 25008KT 10SM CLR 10/01 A2994 RMK AO2 T00990007
KRCZ 151740Z AUTO 25006KT 10SM CLR 10/01 A2994 RMK AO2 T00980011
KRCZ 151720Z AUTO 24005KT 10SM CLR 09/01 A2994 RMK AO2 T00870010
KRCZ 151700Z AUTO 23003KT 10SM CLR 08/02 A2995 RMK AO2 T00840017
KRCZ 151640Z AUTO 24004KT 10SM CLR 07/02 A2998 RMK AO2 T00740016
KRCZ 151620Z AUTO 00000KT 10SM CLR 07/02 A2998 RMK AO2 T00720017
KRCZ 151600Z AUTO 00000KT 10SM CLR 06/01 A2999 RMK AO2 T00590012
KRCZ 151540Z AUTO 00000KT 10SM CLR 06/02 A2999 RMK AO2 T00560015
KRCZ 151520Z AUTO 00000KT 10SM CLR 05/01 A2999 RMK AO2 T00540013
KRCZ 151500Z AUTO 02003KT 10SM CLR 05/01 A3000 RMK AO2 T00470014
KRCZ 151440Z AUTO 04003KT 10SM CLR 04/01 A2998 RMK AO2 T00420010
KRCZ 151420Z AUTO 02004KT 10SM CLR 04/01 A2998 RMK AO2 T00360009
KRCZ 151400Z AUTO 02004KT 10SM CLR 03/01 A2999 RMK AO2 T00320006
KRCZ 151340Z AUTO 01004KT 10SM CLR 03/00 A2999 RMK AO2 T00250003
KRCZ 151320Z AUTO 36003KT 10SM CLR 03/00 A2999 RMK AO2 T00250001
KRCZ 151300Z AUTO 00000KT 10SM CLR 02/00 A2997 RMK AO2 T00200000
KRCZ 151240Z AUTO 00000KT 10SM CLR 02/00 A2998 RMK AO2 T00151001
KRCZ 151220Z AUTO 00000KT 10SM CLR 02/00 A2997 RMK AO2 T00191002
KRCZ 151200Z AUTO 00000KT 10SM CLR 02/00 A2998 RMK AO2 T00221003
KRCZ 151140Z AUTO 00000KT 10SM CLR 03/00 A2997 RMK AO2 T00251001
KRCZ 151120Z AUTO 00000KT 10SM CLR 03/00 A2997 RMK AO2 T00281002
KRCZ 151100Z AUTO 00000KT 10SM CLR 03/00 A2997 RMK AO2 T00301005
KRCZ 151040Z AUTO 07003KT 10SM CLR 03/M01 A2997 RMK AO2 T00321007
KRCZ 151020Z AUTO 08003KT 10SM CLR 03/M01 A2996 RMK AO2 T00331009
KRCZ 151000Z AUTO 00000KT 10SM CLR 03/M01 A2996 RMK AO2 T00331010
KRCZ 150940Z AUTO 08005KT 10SM CLR 03/M01 A2995 RMK AO2 T00321012
KRCZ 150920Z AUTO 07003KT 10SM CLR 03/M01 A2996 RMK AO2 T00301012
KRCZ 150900Z AUTO 06003KT 10SM CLR 03/M01 A2997 RMK AO2 T00301014
KRCZ 150840Z AUTO 04003KT 10SM CLR 03/M01 A2997 RMK AO2 T00301015